Time;durP1;ratioP1;P1;durP2;ratioP2;P2;SDS_P1;SDS_P2;PMS_P1;PMS_P2;Temp;Humidity;BMP_temperature;BMP_pressure;BME280_temperature;BME280_humidity;BME280_pressure;Samples;Min_cycle;Max_cycle;Signal;HPM_P1;HPM_P2
2023/01/18 00:01:21;;;;;;;;;25.75;23.75;;;;;4.80;64.55;98727.81;5060268;28;45510;-58
2023/01/18 00:03:47;;;;;;;;;33.25;26.75;;;;;4.80;64.26;98738.22;5075646;27;46976;-58
2023/01/18 00:06:13;;;;;;;;;45.75;33.50;;;;;4.79;64.24;98739.13;5059977;28;45327;-58
2023/01/18 00:08:39;;;;;;;;;32.75;25.00;;;;;4.79;64.51;98746.94;5060447;28;45157;-60
2023/01/18 00:11:08;;;;;;;;;33.50;28.25;;;;;4.78;64.30;98742.63;5059898;28;45477;-58
2023/01/18 00:13:34;;;;;;;;;36.00;32.50;;;;;4.77;64.40;98745.25;5060165;28;46175;-58
2023/01/18 00:16:04;;;;;;;;;32.00;28.50;;;;;4.78;64.42;98747.84;5058821;28;46069;-58
2023/01/18 00:18:29;;;;;;;;;35.00;30.75;;;;;4.77;64.52;98755.66;5060217;28;45224;-58
2023/01/18 00:20:59;;;;;;;;;27.50;25.00;;;;;4.76;64.17;98753.97;5059715;28;45479;-58
2023/01/18 00:23:24;;;;;;;;;36.25;28.50;;;;;4.74;64.36;98755.72;5060088;28;46194;-58
2023/01/18 00:25:49;;;;;;;;;29.25;25.25;;;;;4.72;64.27;98766.19;5059988;28;45306;-58
2023/01/18 00:28:14;;;;;;;;;30.25;25.00;;;;;4.69;64.33;98771.44;5067207;28;45252;-58
2023/01/18 00:30:40;;;;;;;;;26.50;20.25;;;;;4.67;64.19;98774.06;5058515;28;45374;-58
2023/01/18 00:33:05;;;;;;;;;27.75;22.50;;;;;4.64;64.06;98776.75;5059951;28;46174;-58
2023/01/18 00:35:30;;;;;;;;;27.25;24.25;;;;;4.60;63.79;98782.06;5059754;28;45311;-58
2023/01/18 00:37:56;;;;;;;;;27.50;24.50;;;;;4.57;63.71;98780.38;5059983;28;45331;-58
2023/01/18 00:40:22;;;;;;;;;32.00;25.75;;;;;4.55;64.03;98779.53;5059855;28;45327;-58
2023/01/18 00:45:31;;;;;;;;;19.00;16.00;;;;;4.47;63.64;98790.09;5060044;28;45209;-58
2023/01/18 00:47:57;;;;;;;;;27.75;21.50;;;;;4.45;63.79;98793.63;5059896;28;45221;-59
2023/01/18 00:50:22;;;;;;;;;21.75;18.25;;;;;4.38;63.91;98788.53;5059310;28;45342;-58
2023/01/18 00:52:49;;;;;;;;;25.00;21.75;;;;;4.33;63.63;98786.94;5059683;28;45222;-58
2023/01/18 00:55:15;;;;;;;;;27.00;23.75;;;;;4.34;63.85;98794.69;5061510;28;45271;-58
2023/01/18 00:57:41;;;;;;;;;28.75;21.75;;;;;4.33;63.76;98794.75;5063154;28;45232;-58
2023/01/18 01:00:10;;;;;;;;;29.50;22.75;;;;;4.28;63.49;98802.63;5061991;28;45350;-58
2023/01/18 01:02:39;;;;;;;;;27.00;21.50;;;;;4.27;63.78;98807.88;5061687;28;48048;-59
2023/01/18 01:07:49;;;;;;;;;24.75;20.00;;;;;4.18;63.44;98814.94;5063127;28;45440;-58
2023/01/18 01:10:15;;;;;;;;;21.75;20.50;;;;;4.16;63.66;98821.91;5063125;28;45680;-58
2023/01/18 01:26:20;;;;;;;;;24.00;22.75;;;;;3.98;63.11;98832.66;5064084;28;45300;-58
2023/01/18 01:28:51;;;;;;;;;26.75;22.50;;;;;3.94;63.22;98833.56;5067853;28;45265;-58
2023/01/18 01:31:18;;;;;;;;;25.00;19.50;;;;;3.90;63.71;98841.44;5062835;28;45319;-58
2023/01/18 01:33:44;;;;;;;;;19.25;18.00;;;;;3.87;63.26;98841.50;5062459;28;46407;-59
2023/01/18 01:36:13;;;;;;;;;25.75;19.75;;;;;3.87;63.31;98851.03;5061170;28;45396;-58
2023/01/18 01:38:42;;;;;;;;;27.25;21.50;;;;;3.81;63.62;98852.00;5061131;28;45351;-58
2023/01/18 01:41:15;;;;;;;;;19.25;18.00;;;;;3.80;63.27;98852.88;5062253;28;45328;-59
2023/01/18 01:43:40;;;;;;;;;26.75;22.75;;;;;3.78;63.64;98854.63;5062313;28;46298;-59
2023/01/18 01:46:30;;;;;;;;;18.25;17.25;;;;;3.76;63.46;98848.63;5062498;28;45533;-59
2023/01/18 01:49:04;;;;;;;;;23.00;20.75;;;;;3.74;63.59;98865.97;5062482;28;45356;-59
2023/01/18 01:51:34;;;;;;;;;22.50;17.50;;;;;3.71;63.27;98868.59;5060748;28;45592;-59
2023/01/18 01:54:05;;;;;;;;;22.50;20.75;;;;;3.70;63.49;98875.56;5061003;28;45279;-58
2023/01/18 01:56:31;;;;;;;;;25.00;24.00;;;;;3.69;63.11;98883.38;5061631;28;45411;-59
2023/01/18 01:58:59;;;;;;;;;25.75;20.75;;;;;3.68;62.93;98882.50;5062474;28;45194;-58
2023/01/18 02:01:27;;;;;;;;;29.25;21.50;;;;;3.67;63.18;98882.53;5062095;28;45477;-58
2023/01/18 02:03:56;;;;;;;;;21.25;16.50;;;;;3.64;63.40;98874.81;5062147;28;46379;-58
2023/01/18 02:06:30;;;;;;;;;20.25;14.50;;;;;3.65;63.18;98882.56;5059573;28;45325;-58
2023/01/18 02:09:00;;;;;;;;;22.75;19.75;;;;;3.60;63.50;98886.97;5062352;28;45458;-58
2023/01/18 02:11:26;;;;;;;;;21.50;17.50;;;;;3.64;63.51;98896.44;5061802;28;45244;-58
2023/01/18 02:13:54;;;;;;;;;25.25;23.00;;;;;3.62;63.45;98895.59;5062117;28;46315;-58
2023/01/18 02:16:34;;;;;;;;;21.25;17.50;;;;;3.62;63.66;98892.97;5061803;28;45316;-59
2023/01/18 02:19:27;;;;;;;;;21.25;16.25;;;;;3.62;63.22;98903.38;5060710;28;45205;-58
2023/01/18 02:22:07;;;;;;;;;21.50;16.00;;;;;3.62;63.64;98899.94;5061635;28;45169;-58
2023/01/18 02:24:42;;;;;;;;;21.00;16.50;;;;;3.62;63.20;98912.91;5061687;28;46078;-58
2023/01/18 02:27:16;;;;;;;;;23.75;19.00;;;;;3.62;63.26;98907.72;5068933;28;45394;-59
2023/01/18 02:30:01;;;;;;;;;21.25;18.00;;;;;3.58;63.22;98912.97;5062020;28;45530;-58
2023/01/18 02:32:32;;;;;;;;;19.50;16.50;;;;;3.61;63.42;98916.41;5061761;28;45269;-58
2023/01/18 02:35:08;;;;;;;;;24.75;20.25;;;;;3.59;63.48;98913.81;5061336;28;46196;-59
2023/01/18 02:37:57;;;;;;;;;17.50;15.25;;;;;3.59;63.30;98919.03;5061583;28;45434;-58
2023/01/18 02:40:43;;;;;;;;;20.50;18.00;;;;;3.58;63.26;98927.69;5061457;28;45299;-58
2023/01/18 02:48:45;;;;;;;;;14.00;13.75;;;;;3.56;63.13;98919.94;5061620;28;45291;-58
2023/01/18 02:51:10;;;;;;;;;19.75;15.75;;;;;3.57;63.19;98924.25;5061231;28;45291;-58
2023/01/18 02:53:42;;;;;;;;;21.00;16.00;;;;;3.56;63.12;98922.53;5061444;28;45215;-58
2023/01/18 02:56:13;;;;;;;;;11.25;10.75;;;;;3.56;63.38;98925.13;5059974;28;48458;-58
2023/01/18 02:59:00;;;;;;;;;16.00;15.00;;;;;3.56;63.26;98934.66;5059825;28;45351;-59
2023/01/18 03:01:37;;;;;;;;;18.00;16.25;;;;;3.53;63.14;98930.34;5061399;28;45354;-58
2023/01/18 03:04:24;;;;;;;;;13.00;13.00;;;;;3.53;63.27;98925.16;5061304;28;45473;-58
2023/01/18 03:07:11;;;;;;;;;14.00;13.00;;;;;3.52;63.42;98922.59;5061026;28;46245;-59
2023/01/18 03:09:39;;;;;;;;;12.75;12.75;;;;;3.53;63.29;98930.34;5060961;28;45360;-58
2023/01/18 03:12:19;;;;;;;;;11.25;11.00;;;;;3.51;63.46;98939.03;5061042;28;45307;-58
2023/01/18 03:14:50;;;;;;;;;17.25;14.75;;;;;3.53;63.58;98950.28;5060975;28;45469;-58
2023/01/18 03:17:42;;;;;;;;;10.50;10.50;;;;;3.50;63.33;98946.00;5059537;28;47272;-59
2023/01/18 03:20:15;;;;;;;;;12.00;10.00;;;;;3.50;63.13;98953.78;5059441;28;46091;-58
2023/01/18 03:25:40;;;;;;;;;15.25;13.75;;;;;3.47;63.45;98961.63;5060847;28;45379;-58
2023/01/18 03:34:03;;;;;;;;;15.00;9.50;;;;;3.44;62.86;98966.00;5060821;28;45350;-58
2023/01/18 03:36:39;;;;;;;;;11.25;11.25;;;;;3.41;63.31;98970.34;5060563;28;45394;-58
2023/01/18 03:39:19;;;;;;;;;5.25;5.25;;;;;3.38;62.90;98970.41;5060503;28;45985;-58
2023/01/18 03:41:50;;;;;;;;;16.75;13.50;;;;;3.36;63.07;98968.69;5060432;28;45240;-58
2023/01/18 03:44:24;;;;;;;;;13.50;9.25;;;;;3.35;63.21;98973.03;5060822;28;45245;-58
2023/01/18 03:46:50;;;;;;;;;15.25;14.25;;;;;3.36;62.98;98971.31;5042382;28;46327;-58
2023/01/18 03:49:17;;;;;;;;;12.25;12.25;;;;;3.36;62.86;98973.91;5060672;28;45489;-58
2023/01/18 03:51:54;;;;;;;;;16.50;12.75;;;;;3.36;63.29;98976.50;5060068;28;45224;-58
2023/01/18 03:54:27;;;;;;;;;17.75;15.00;;;;;3.34;63.21;98986.03;5060564;28;45252;-58
2023/01/18 03:57:00;;;;;;;;;14.00;11.25;;;;;3.34;63.35;98986.88;5060254;28;45323;-58
2023/01/18 03:59:32;;;;;;;;;11.75;10.75;;;;;3.35;63.18;98995.53;5060292;28;45411;-58
2023/01/18 04:01:58;;;;;;;;;17.50;12.75;;;;;3.33;63.35;99002.47;5059087;28;45399;-59
2023/01/18 04:04:23;;;;;;;;;14.50;12.25;;;;;3.35;62.87;99004.19;5058821;28;45486;-58
2023/01/18 04:06:49;;;;;;;;;15.25;14.25;;;;;3.36;63.25;99012.84;5060227;28;45439;-58
2023/01/18 04:09:14;;;;;;;;;11.25;10.25;;;;;3.34;63.04;99006.81;5060097;28;46247;-59
2023/01/18 04:11:40;;;;;;;;;11.75;11.50;;;;;3.35;62.88;99013.72;5058773;28;45271;-58
2023/01/18 04:14:05;;;;;;;;;15.50;12.50;;;;;3.33;63.06;99011.13;5059064;28;45341;-58
2023/01/18 04:16:32;;;;;;;;;13.00;10.75;;;;;3.35;63.54;99024.09;5060133;28;45256;-58
2023/01/18 04:18:57;;;;;;;;;16.50;13.00;;;;;3.31;63.17;99032.78;5059959;28;45321;-58
2023/01/18 04:21:23;;;;;;;;;12.50;12.50;;;;;3.30;63.06;99025.91;5059860;28;45214;-59
2023/01/18 04:23:48;;;;;;;;;20.50;14.75;;;;;3.34;63.11;99045.75;5060338;28;45354;-58
2023/01/18 04:26:15;;;;;;;;;8.00;6.50;;;;;3.34;63.01;99043.16;5060320;28;45569;-58
2023/01/18 04:28:41;;;;;;;;;14.50;13.25;;;;;3.35;63.08;99056.13;5044961;28;45283;-59
2023/01/18 04:31:07;;;;;;;;;14.00;11.50;;;;;3.36;63.15;99059.59;5075388;28;45301;-58
2023/01/18 04:33:33;;;;;;;;;15.00;11.25;;;;;3.37;62.92;99063.88;5059825;28;45299;-58
2023/01/18 04:35:59;;;;;;;;;16.50;13.25;;;;;3.40;63.28;99063.88;5059567;28;45331;-58
2023/01/18 04:38:25;;;;;;;;;16.25;13.75;;;;;3.41;63.11;99065.59;5058342;28;46434;-59
2023/01/18 04:40:50;;;;;;;;;24.50;18.75;;;;;3.41;63.28;99066.44;5059752;28;45320;-58
2023/01/18 04:43:16;;;;;;;;;17.75;16.25;;;;;3.41;63.32;99066.44;5058478;28;45537;-58
2023/01/18 04:45:41;;;;;;;;;20.25;18.50;;;;;3.37;63.02;99059.56;5059868;28;45330;-58
2023/01/18 04:48:07;;;;;;;;;21.00;17.00;;;;;3.40;62.84;99077.69;5059741;28;46256;-58
2023/01/18 04:50:32;;;;;;;;;19.75;17.50;;;;;3.40;63.01;99074.25;5059551;28;45300;-58
2023/01/18 04:52:58;;;;;;;;;18.00;15.75;;;;;3.37;63.18;99082.06;5059900;28;45284;-58
2023/01/18 04:55:23;;;;;;;;;19.25;16.00;;;;;3.37;62.88;99095.03;5059715;28;45157;-58
2023/01/18 04:57:56;;;;;;;;;23.25;18.50;;;;;3.37;62.74;99084.66;5059388;28;46213;-58
2023/01/18 05:00:22;;;;;;;;;21.50;19.75;;;;;3.37;62.78;99087.25;5059564;28;45403;-58
2023/01/18 05:02:48;;;;;;;;;24.00;20.25;;;;;3.36;63.13;99090.75;5059745;28;45166;-58
2023/01/18 05:05:14;;;;;;;;;26.50;21.50;;;;;3.39;63.23;99088.09;5059211;28;45219;-58
2023/01/18 05:07:39;;;;;;;;;26.00;21.25;;;;;3.38;62.80;99095.06;5059232;28;45859;-58
2023/01/18 05:10:05;;;;;;;;;21.25;19.50;;;;;3.38;62.75;99094.19;5059649;28;45216;-58
2023/01/18 05:12:30;;;;;;;;;25.50;19.75;;;;;3.38;62.63;99094.19;5059237;28;45236;-58
2023/01/18 05:14:55;;;;;;;;;21.50;18.00;;;;;3.36;63.06;99102.00;5059541;28;45157;-58
2023/01/18 05:17:26;;;;;;;;;24.00;20.75;;;;;3.34;63.38;99098.53;5059225;28;46052;-58
2023/01/18 05:19:53;;;;;;;;;24.25;16.75;;;;;3.36;62.77;99108.94;5059159;28;45353;-58
2023/01/18 05:22:18;;;;;;;;;21.50;19.75;;;;;3.35;62.76;99104.59;5059117;28;45359;-58
2023/01/18 05:24:44;;;;;;;;;22.75;19.50;;;;;3.35;62.76;99110.66;5059578;28;45240;-58
2023/01/18 05:27:10;;;;;;;;;22.50;20.00;;;;;3.35;62.73;99112.41;5065048;28;46831;-58
2023/01/18 05:29:36;;;;;;;;;25.25;19.00;;;;;3.34;63.06;99110.66;5059374;28;45298;-58
2023/01/18 05:32:01;;;;;;;;;22.25;20.50;;;;;3.34;62.76;99115.88;5059221;28;45235;-58
2023/01/18 05:34:27;;;;;;;;;16.50;12.75;;;;;3.33;63.03;99104.59;5059401;28;45580;-58
2023/01/18 05:36:52;;;;;;;;;17.00;15.25;;;;;3.33;62.67;99117.59;5058648;28;46227;-58
2023/01/18 05:39:18;;;;;;;;;27.50;20.25;;;;;3.34;62.77;99113.28;5059249;28;45313;-58
2023/01/18 05:41:43;;;;;;;;;16.25;15.25;;;;;3.32;63.10;99113.28;5060154;28;45371;-58
2023/01/18 05:44:09;;;;;;;;;24.00;18.75;;;;;3.36;63.27;99125.34;5062584;28;45292;-58
2023/01/18 05:46:35;;;;;;;;;21.50;18.00;;;;;3.36;62.88;99132.31;5062284;28;47017;-58
2023/01/18 05:49:00;;;;;;;;;19.00;18.75;;;;;3.37;63.05;99139.19;5062519;28;45457;-57
2023/01/18 05:51:26;;;;;;;;;18.50;17.25;;;;;3.37;63.00;99145.25;5062357;28;45488;-58
2023/01/18 05:53:51;;;;;;;;;20.25;16.25;;;;;3.36;62.64;99147.88;5062371;28;45248;-58
2023/01/18 05:56:16;;;;;;;;;21.00;19.00;;;;;3.35;62.66;99143.56;5061949;28;46256;-58
2023/01/18 05:58:42;;;;;;;;;21.75;15.75;;;;;3.37;62.71;99153.06;5061049;28;45272;-57
2023/01/18 06:01:07;;;;;;;;;20.25;13.25;;;;;3.35;62.77;99148.75;5062185;28;45402;-58
2023/01/18 06:03:33;;;;;;;;;25.25;20.50;;;;;3.39;62.66;99155.63;5060710;28;45482;-56
2023/01/18 06:05:59;;;;;;;;;20.25;17.75;;;;;3.36;62.82;99156.53;5061780;28;46377;-60
2023/01/18 06:08:25;;;;;;;;;19.50;14.75;;;;;3.37;62.71;99162.56;5062142;28;45312;-63
2023/01/18 06:10:55;;;;;;;;;16.25;15.00;;;;;3.35;62.86;99165.19;5062210;28;45390;-59
2023/01/18 06:13:22;;;;;;;;;24.50;20.00;;;;;3.36;62.68;99171.25;5062081;28;45648;-58
2023/01/18 06:15:47;;;;;;;;;25.00;16.50;;;;;3.34;62.60;99162.59;5061963;28;46975;-58
2023/01/18 06:18:13;;;;;;;;;17.75;14.75;;;;;3.36;62.83;99176.44;5062063;28;45202;-58
2023/01/18 06:20:38;;;;;;;;;21.00;17.00;;;;;3.36;63.05;99181.66;5060519;28;45741;-58
2023/01/18 06:23:03;;;;;;;;;24.50;17.25;;;;;3.38;63.01;99191.13;5061997;28;45558;-58
2023/01/18 06:25:29;;;;;;;;;23.75;16.75;;;;;3.39;62.80;99198.03;5061891;28;45346;-59
2023/01/18 06:27:54;;;;;;;;;26.25;22.00;;;;;3.40;62.97;99193.72;5068996;28;45477;-58
2023/01/18 06:30:20;;;;;;;;;23.00;20.25;;;;;3.40;63.01;99196.31;5061896;28;45359;-58
2023/01/18 06:32:47;;;;;;;;;24.00;20.00;;;;;3.41;62.50;99211.88;5061843;28;45208;-58
2023/01/18 06:35:12;;;;;;;;;21.00;15.00;;;;;3.40;62.45;99215.34;5061363;28;46065;-58
2023/01/18 06:37:38;;;;;;;;;22.25;17.75;;;;;3.38;62.78;99221.41;5060620;28;45346;-58
2023/01/18 06:40:04;;;;;;;;;19.75;16.25;;;;;3.41;62.86;99231.81;5061626;28;45316;-58
2023/01/18 06:42:29;;;;;;;;;21.50;18.25;;;;;3.39;62.45;99239.59;5061448;28;45318;-58
2023/01/18 06:44:54;;;;;;;;;16.00;15.75;;;;;3.40;62.45;99243.06;5061509;28;45318;-58
2023/01/18 06:47:20;;;;;;;;;19.25;15.75;;;;;3.42;62.86;99243.88;5060439;28;45439;-58
2023/01/18 06:49:49;;;;;;;;;22.00;18.75;;;;;3.41;62.85;99248.22;5061277;28;45344;-58
2023/01/18 06:52:15;;;;;;;;;17.00;16.25;;;;;3.39;62.63;99243.94;5059837;28;45975;-58
2023/01/18 06:54:40;;;;;;;;;17.50;16.25;;;;;3.39;62.66;99249.97;5061292;28;46074;-58
2023/01/18 06:57:06;;;;;;;;;20.75;19.00;;;;;3.39;62.81;99254.31;5061482;28;45357;-58
2023/01/18 06:59:31;;;;;;;;;16.25;16.25;;;;;3.37;62.34;99261.25;5061388;28;45264;-58
2023/01/18 07:01:57;;;;;;;;;21.00;18.75;;;;;3.33;62.75;99262.16;5061459;28;45307;-58
2023/01/18 07:04:22;;;;;;;;;17.25;15.75;;;;;3.31;62.91;99262.19;5059572;28;46148;-58
2023/01/18 07:06:48;;;;;;;;;23.75;19.75;;;;;3.31;62.57;99271.69;5061026;28;45313;-58
2023/01/18 07:09:13;;;;;;;;;25.75;19.75;;;;;3.28;62.49;99271.72;5061327;28;45378;-58
2023/01/18 07:11:42;;;;;;;;;18.50;17.50;;;;;3.24;62.70;99276.06;5061029;28;45328;-58
2023/01/18 07:14:09;;;;;;;;;19.50;16.75;;;;;3.23;62.61;99288.22;5059795;28;45543;-58
2023/01/18 07:16:34;;;;;;;;;22.25;19.00;;;;;3.23;62.52;99285.59;5061206;28;45326;-58
2023/01/18 07:19:00;;;;;;;;;22.00;18.75;;;;;3.22;62.57;99288.19;5061022;28;45216;-58
2023/01/18 07:21:28;;;;;;;;;22.75;19.00;;;;;3.17;62.36;99290.84;5060777;28;45423;-58
2023/01/18 07:23:55;;;;;;;;;20.50;20.50;;;;;3.17;63.03;99303.81;5060744;28;46098;-58
2023/01/18 07:26:20;;;;;;;;;21.75;16.25;;;;;3.16;62.62;99299.50;5062135;28;45256;-58
2023/01/18 07:28:46;;;;;;;;;17.25;13.25;;;;;3.09;62.98;99303.88;5065627;28;45347;-58
2023/01/18 07:31:13;;;;;;;;;20.25;18.00;;;;;3.12;62.62;99308.19;5060947;28;45248;-58
2023/01/18 07:33:38;;;;;;;;;20.00;19.25;;;;;3.11;62.43;99315.97;5060656;28;46400;-58
2023/01/18 07:36:05;;;;;;;;;19.50;16.25;;;;;3.07;62.49;99320.34;5060852;28;45435;-58
2023/01/18 07:38:31;;;;;;;;;24.00;20.50;;;;;3.08;62.78;99327.22;5060762;28;45219;-58
2023/01/18 07:41:01;;;;;;;;;20.50;19.00;;;;;3.04;62.51;99320.34;5060413;28;45178;-58
2023/01/18 07:43:27;;;;;;;;;23.50;21.00;;;;;3.03;62.77;99327.28;5059257;28;45523;-58
2023/01/18 07:45:53;;;;;;;;;20.50;20.50;;;;;3.07;62.49;99335.91;5060799;28;45260;-58
2023/01/18 07:48:20;;;;;;;;;15.75;7.75;;;;;3.06;62.76;99334.19;5060650;28;45287;-58
2023/01/18 07:51:00;;;;;;;;;22.00;20.00;;;;;3.05;62.93;99337.66;5060286;28;45499;-58
2023/01/18 07:53:26;;;;;;;;;21.25;20.00;;;;;3.04;62.79;99341.97;5060269;28;47147;-58
2023/01/18 07:55:52;;;;;;;;;27.00;22.75;;;;;3.05;62.72;99351.47;5060676;28;45251;-58
2023/01/18 07:58:19;;;;;;;;;25.25;23.25;;;;;3.02;62.67;99359.28;5060239;28;45503;-58
2023/01/18 08:00:44;;;;;;;;;28.00;22.50;;;;;2.99;62.45;99343.72;5060611;28;45407;-58
2023/01/18 08:03:15;;;;;;;;;11.25;7.75;;;;;3.02;62.56;99358.41;5060155;28;46199;-58
2023/01/18 08:05:44;;;;;;;;;24.75;23.50;;;;;3.00;62.84;99357.56;5058968;28;45338;-58
2023/01/18 08:08:11;;;;;;;;;25.75;21.50;;;;;3.01;63.10;99367.09;5060436;28;45260;-58
2023/01/18 08:10:37;;;;;;;;;23.25;20.75;;;;;3.01;62.64;99367.09;5060176;28;45581;-58
2023/01/18 08:13:03;;;;;;;;;21.75;20.25;;;;;3.00;62.99;99381.78;5059891;28;46178;-58
2023/01/18 08:15:28;;;;;;;;;30.00;25.50;;;;;3.00;62.72;99368.81;5060345;28;45364;-58
2023/01/18 08:17:54;;;;;;;;;25.50;24.00;;;;;3.01;62.96;99374.88;5060135;28;45374;-58
2023/01/18 08:20:20;;;;;;;;;25.25;20.25;;;;;2.98;62.68;99373.16;5059996;28;45567;-58
2023/01/18 08:22:46;;;;;;;;;29.00;23.75;;;;;3.03;62.96;99386.09;5059866;28;46352;-58
2023/01/18 08:25:12;;;;;;;;;26.50;25.00;;;;;2.95;62.71;99377.50;5060093;28;45369;-60
2023/01/18 08:27:37;;;;;;;;;29.00;25.75;;;;;3.01;63.23;99393.91;5066792;28;45419;-58
2023/01/18 08:30:04;;;;;;;;;28.50;26.00;;;;;2.98;62.87;99393.03;5059942;28;45208;-58
2023/01/18 08:32:29;;;;;;;;;29.25;27.00;;;;;3.01;63.02;99400.84;5059618;28;46148;-58
2023/01/18 08:34:55;;;;;;;;;28.00;23.75;;;;;3.01;62.83;99404.28;5059816;28;45150;-58
2023/01/18 08:37:22;;;;;;;;;30.50;28.25;;;;;3.01;62.64;99411.22;5059854;28;45247;-58
2023/01/18 08:39:48;;;;;;;;;33.00;29.75;;;;;3.04;63.02;99413.78;5059928;28;45340;-58
2023/01/18 08:42:13;;;;;;;;;34.00;28.25;;;;;3.07;63.27;99421.56;5059478;28;46083;-58
2023/01/18 08:44:38;;;;;;;;;33.25;30.25;;;;;3.10;63.18;99418.94;5059829;28;45366;-58
2023/01/18 08:47:04;;;;;;;;;33.25;27.00;;;;;3.12;63.18;99427.59;5058464;28;45712;-58
2023/01/18 08:49:31;;;;;;;;;34.50;33.25;;;;;3.16;62.85;99425.88;5059944;28;45436;-58
2023/01/18 08:51:57;;;;;;;;;39.25;35.00;;;;;3.18;63.13;99426.69;5059234;28;46054;-58
2023/01/18 08:54:23;;;;;;;;;36.75;32.00;;;;;3.23;63.18;99433.59;5059905;28;45208;-58
2023/01/18 08:56:50;;;;;;;;;39.25;32.25;;;;;3.28;63.05;99430.97;5058251;28;45362;-57
2023/01/18 08:59:15;;;;;;;;;45.75;38.75;;;;;3.37;63.01;99428.34;5059690;28;45306;-58
2023/01/18 09:01:40;;;;;;;;;40.50;35.00;;;;;3.43;63.36;99432.63;5059293;28;45307;-58
2023/01/18 09:04:06;;;;;;;;;44.00;36.75;;;;;3.50;63.30;99442.09;5059471;28;45211;-58
2023/01/18 09:06:32;;;;;;;;;40.50;31.75;;;;;3.56;63.20;99438.63;5059290;28;45387;-58
2023/01/18 09:08:58;;;;;;;;;36.50;34.50;;;;;3.61;63.07;99443.78;5059696;28;45252;-58
2023/01/18 09:11:23;;;;;;;;;39.00;36.00;;;;;3.65;63.48;99437.66;5059022;28;46441;-58
2023/01/18 09:13:53;;;;;;;;;45.00;35.50;;;;;3.65;63.51;99450.66;5059644;28;45255;-58
2023/01/18 09:16:20;;;;;;;;;36.75;32.00;;;;;3.68;63.21;99458.44;5060296;28;45328;-58
2023/01/18 09:18:46;;;;;;;;;39.00;35.75;;;;;3.73;63.05;99464.47;5062873;28;45321;-58
2023/01/18 09:21:12;;;;;;;;;38.00;35.75;;;;;3.75;62.93;99467.94;5062373;28;46101;-58
2023/01/18 09:23:39;;;;;;;;;34.50;33.75;;;;;3.81;63.13;99480.91;5062929;28;45402;-58
2023/01/18 09:26:15;;;;;;;;;36.75;30.75;;;;;3.85;63.43;99480.00;5062912;28;45302;-58
2023/01/18 09:28:41;;;;;;;;;28.50;16.75;;;;;3.93;63.49;99481.69;5056115;28;45516;-58
2023/01/18 09:31:08;;;;;;;;;34.50;32.25;;;;;3.98;63.59;99492.91;5049387;28;45342;-58
2023/01/18 09:33:34;;;;;;;;;39.50;36.25;;;;;4.05;63.07;99502.38;5062888;28;45272;-58
2023/01/18 09:36:06;;;;;;;;;30.50;28.25;;;;;4.11;63.32;99499.72;5062608;28;45236;-58
2023/01/18 09:38:32;;;;;;;;;42.00;36.00;;;;;4.19;62.98;99512.69;5062476;28;45314;-58
2023/01/18 09:40:59;;;;;;;;;39.50;36.75;;;;;4.26;63.00;99514.34;5062242;28;45477;-58
2023/01/18 09:43:40;;;;;;;;;29.25;25.00;;;;;4.36;63.19;99516.00;5062460;28;45259;-58
2023/01/18 09:46:20;;;;;;;;;39.00;33.75;;;;;4.46;62.64;99537.59;5061240;28;45361;-58
2023/01/18 09:48:58;;;;;;;;;46.00;34.50;;;;;4.51;63.21;99533.22;5061076;28;45447;-58
2023/01/18 09:51:47;;;;;;;;;33.25;28.25;;;;;4.59;62.87;99540.09;5060783;28;47972;-58
2023/01/18 09:54:34;;;;;;;;;32.75;30.25;;;;;4.69;63.04;99542.63;5062526;28;45497;-58
2023/01/18 09:57:32;;;;;;;;;44.25;33.00;;;;;4.80;62.93;99539.91;5062322;28;45481;-58
2023/01/18 10:00:00;;;;;;;;;39.25;36.25;;;;;4.91;62.83;99545.00;5062193;28;45342;-58
2023/01/18 10:02:37;;;;;;;;;32.75;29.00;;;;;5.02;63.03;99547.50;5062203;28;46296;-58
2023/01/18 10:05:10;;;;;;;;;37.00;34.25;;;;;5.13;62.76;99549.97;5061805;28;45300;-58
2023/01/18 10:07:47;;;;;;;;;39.00;32.50;;;;;5.23;62.95;99545.53;5062310;28;45382;-57
2023/01/18 10:10:17;;;;;;;;;35.00;32.50;;;;;5.37;62.63;99559.25;5062397;28;45269;-58
2023/01/18 10:12:50;;;;;;;;;31.75;26.25;;;;;5.49;63.02;99556.50;5061777;28;45497;-58
2023/01/18 10:15:20;;;;;;;;;35.00;29.75;;;;;5.59;62.92;99559.88;5062129;28;45435;-57
2023/01/18 10:17:48;;;;;;;;;38.75;33.25;;;;;5.70;63.10;99552.75;5061832;28;45394;-57
2023/01/18 10:20:27;;;;;;;;;30.75;30.75;;;;;5.84;62.97;99560.41;5061735;28;45438;-57
2023/01/18 10:23:14;;;;;;;;;42.50;35.50;;;;;6.03;63.00;99564.56;5061788;28;45362;-57
2023/01/18 10:26:30;;;;;;;;;32.75;26.75;;;;;6.20;63.01;99559.06;5062006;28;45531;-58
2023/01/18 10:29:06;;;;;;;;;35.75;26.75;;;;;6.34;63.07;99557.13;5038831;28;45475;-58
2023/01/18 10:32:00;;;;;;;;;33.50;29.75;;;;;6.47;62.81;99556.03;5060962;28;45249;-57
2023/01/18 10:34:33;;;;;;;;;32.75;25.50;;;;;6.62;62.74;99561.91;5061850;28;46968;-57
2023/01/18 10:37:11;;;;;;;;;31.75;27.50;;;;;6.74;62.53;99566.03;5061556;28;45482;-57
2023/01/18 10:39:59;;;;;;;;;37.75;31.00;;;;;6.83;62.51;99569.34;5061764;28;45411;-57
2023/01/18 10:42:46;;;;;;;;;25.75;22.50;;;;;6.94;62.30;99568.28;5061104;28;45413;-57
2023/01/18 10:45:19;;;;;;;;;30.75;25.75;;;;;7.05;62.42;99573.34;5061384;28;47293;-57
2023/01/18 10:47:46;;;;;;;;;36.25;33.00;;;;;7.14;61.88;99570.53;5061715;28;45312;-58
2023/01/18 10:50:15;;;;;;;;;29.75;28.50;;;;;7.22;61.91;99573.00;5061311;28;45225;-58
2023/01/18 10:52:40;;;;;;;;;29.75;27.25;;;;;7.28;61.91;99571.16;5061361;28;45590;-57
2023/01/18 10:55:12;;;;;;;;;27.50;24.75;;;;;7.35;61.78;99569.28;5061281;28;46008;-57
2023/01/18 10:57:50;;;;;;;;;22.25;19.75;;;;;7.45;61.86;99569.97;5061262;28;45462;-57
2023/01/18 11:00:32;;;;;;;;;23.25;20.25;;;;;7.56;61.96;99572.34;5061315;28;45255;-57
2023/01/18 11:02:59;;;;;;;;;21.75;20.00;;;;;7.70;61.95;99557.25;5059732;28;45639;-57
2023/01/18 11:05:43;;;;;;;;;20.50;19.75;;;;;7.85;61.90;99568.25;5060768;28;45296;-56
2023/01/18 11:08:20;;;;;;;;;16.25;13.25;;;;;7.95;61.51;99560.19;5059669;28;45336;-56
2023/01/18 11:11:00;;;;;;;;;15.50;14.50;;;;;8.08;61.05;99559.91;5061240;28;45307;-56
2023/01/18 11:13:37;;;;;;;;;19.50;16.50;;;;;8.18;61.16;99555.34;5061085;28;45355;-57
2023/01/18 11:16:31;;;;;;;;;15.50;13.50;;;;;8.26;61.29;99561.22;5060749;28;46851;-56
2023/01/18 11:18:59;;;;;;;;;15.00;13.75;;;;;8.37;61.20;99548.75;5057602;28;45311;-56
2023/01/18 11:21:29;;;;;;;;;12.75;12.00;;;;;8.47;61.20;99553.81;5061003;28;45383;-55
2023/01/18 11:23:55;;;;;;;;;13.75;13.25;;;;;8.55;61.11;99552.72;5060784;28;45491;-57
2023/01/18 11:26:22;;;;;;;;;12.50;9.25;;;;;8.69;60.89;99552.38;5062039;28;46050;-55
2023/01/18 11:28:50;;;;;;;;;14.50;13.25;;;;;8.80;60.83;99546.00;5066322;28;45454;-56
2023/01/18 11:31:24;;;;;;;;;9.75;9.00;;;;;8.91;60.31;99550.03;5059777;28;45276;-56
2023/01/18 11:33:58;;;;;;;;;7.25;7.25;;;;;9.02;59.67;99552.38;5059335;28;45702;-56
2023/01/18 11:36:39;;;;;;;;;13.75;12.25;;;;;9.09;60.23;99548.72;5060530;28;46153;-55
2023/01/18 11:39:35;;;;;;;;;9.00;8.00;;;;;9.18;59.98;99546.72;5059096;28;45480;-56
2023/01/18 11:42:16;;;;;;;;;10.00;10.00;;;;;9.24;60.50;99538.69;5060635;28;45259;-56
2023/01/18 11:44:56;;;;;;;;;5.75;5.00;;;;;9.33;59.65;99535.78;5059344;28;45612;-55
2023/01/18 11:47:44;;;;;;;;;4.50;4.50;;;;;9.41;59.88;99531.22;5059201;28;45607;-55
2023/01/18 11:50:47;;;;;;;;;8.25;5.75;;;;;9.51;59.91;99541.41;5058829;28;45332;-55
2023/01/18 11:53:16;;;;;;;;;7.75;6.50;;;;;9.56;59.64;99526.44;5059203;28;45358;-55
2023/01/18 11:55:55;;;;;;;;;11.75;6.75;;;;;9.60;59.68;99525.44;5059207;28;45467;-55
2023/01/18 11:58:29;;;;;;;;;6.25;5.75;;;;;9.71;59.05;99531.22;5058449;28;46245;-55
2023/01/18 12:01:13;;;;;;;;;7.25;6.75;;;;;9.76;58.77;99531.94;5060384;28;45393;-55
2023/01/18 12:04:01;;;;;;;;;11.00;8.50;;;;;9.80;59.34;99526.59;5060364;28;45349;-54
2023/01/18 12:06:35;;;;;;;;;8.50;7.00;;;;;9.85;59.11;99533.44;5059906;28;45235;-55
2023/01/18 12:09:25;;;;;;;;;7.50;6.50;;;;;9.90;59.32;99520.19;5060219;28;46843;-55
2023/01/18 12:12:24;;;;;;;;;7.00;7.00;;;;;9.96;59.33;99530.50;5060022;28;45345;-55
2023/01/18 12:15:07;;;;;;;;;6.75;5.25;;;;;10.00;59.62;99536.47;5058963;28;45247;-55